Time;durP1;ratioP1;P1;durP2;ratioP2;P2;SDS_P1;SDS_P2;PMS_P1;PMS_P2;Temp;Humidity;BMP_temperature;BMP_pressure;BME280_temperature;BME280_humidity;BME280_pressure;Samples;Min_cycle;Max_cycle;Signal;HPM_P1;HPM_P2
2022/07/12 00:01:04;;;;;;;1.53;1.20;;;;;;;;;;7368801;19;20180;-76
2022/07/12 00:03:29;;;;;;;2.07;1.13;;;;;;;;;;7378711;19;20171;-78
2022/07/12 00:05:56;;;;;;;2.13;1.30;;;;;;;;;;7383497;19;20164;-79
2022/07/12 00:08:21;;;;;;;1.87;1.40;;;;;;;;;;7372528;19;20224;-77
2022/07/12 00:10:46;;;;;;;1.90;1.40;;;;;;;;;;7374732;19;20680;-77
2022/07/12 00:13:12;;;;;;;2.50;1.53;;;;;;;;;;7365018;19;20537;-78
2022/07/12 00:15:37;;;;;;;3.30;1.50;;;;;;;;;;7373402;19;20150;-76
2022/07/12 00:18:03;;;;;;;1.20;1.10;;;;;;;;;;7368596;19;20121;-78
2022/07/12 00:20:28;;;;;;;1.37;1.27;;;;;;;;;;7370308;19;20694;-78
2022/07/12 00:22:54;;;;;;;1.93;1.47;;;;;;;;;;7361073;19;20157;-79
2022/07/12 00:25:20;;;;;;;1.43;1.27;;;;;;;;;;7368031;19;20148;-77
2022/07/12 00:27:45;;;;;;;3.07;1.30;;;;;;;;;;7371300;19;20121;-77
2022/07/12 00:30:11;;;;;;;2.27;1.27;;;;;;;;;;7369694;19;20493;-79
2022/07/12 00:32:36;;;;;;;1.40;1.30;;;;;;;;;;7370573;19;20152;-77
2022/07/12 00:35:02;;;;;;;1.30;1.20;;;;;;;;;;7366502;19;20121;-77
2022/07/12 00:37:28;;;;;;;2.33;1.33;;;;;;;;;;7371191;19;20574;-78
2022/07/12 00:39:53;;;;;;;2.03;1.40;;;;;;;;;;7375565;19;20152;-77
2022/07/12 00:42:18;;;;;;;1.00;1.00;;;;;;;;;;7364818;19;20204;-78
2022/07/12 00:44:43;;;;;;;1.83;1.67;;;;;;;;;;7373307;19;20128;-77
2022/07/12 00:47:25;;;;;;;1.20;1.10;;;;;;;;;;7370636;19;20143;-78
2022/07/12 00:49:51;;;;;;;2.50;1.50;;;;;;;;;;7367567;19;20248;-79
2022/07/12 00:52:16;;;;;;;1.40;1.30;;;;;;;;;;7366603;19;20204;-78
2022/07/12 00:54:42;;;;;;;1.40;1.30;;;;;;;;;;7375275;19;20129;-77
2022/07/12 00:57:08;;;;;;;1.70;1.23;;;;;;;;;;7366995;19;20155;-76
2022/07/12 00:59:33;;;;;;;3.20;1.50;;;;;;;;;;7369929;19;20121;-79
2022/07/12 01:01:58;;;;;;;1.40;1.30;;;;;;;;;;7373383;19;20187;-76
2022/07/12 01:04:24;;;;;;;1.60;1.50;;;;;;;;;;7371781;19;20611;-77
2022/07/12 01:06:50;;;;;;;1.77;1.40;;;;;;;;;;7369123;19;20167;-77
2022/07/12 01:09:15;;;;;;;2.43;1.40;;;;;;;;;;7374898;19;20117;-76
2022/07/12 01:11:40;;;;;;;2.23;1.40;;;;;;;;;;7374871;19;20606;-75
2022/07/12 01:14:06;;;;;;;1.40;1.20;;;;;;;;;;7369944;19;20654;-76
2022/07/12 01:16:32;;;;;;;2.23;1.50;;;;;;;;;;7369529;19;20162;-78
2022/07/12 01:18:58;;;;;;;1.57;1.40;;;;;;;;;;7374304;19;20491;-77
2022/07/12 01:21:24;;;;;;;1.53;1.40;;;;;;;;;;7410096;19;20156;-77
2022/07/12 01:23:51;;;;;;;2.13;1.93;;;;;;;;;;7411680;19;20121;-81
2022/07/12 01:26:16;;;;;;;3.00;1.90;;;;;;;;;;7412794;19;20164;-77
2022/07/12 01:28:42;;;;;;;1.50;1.40;;;;;;;;;;7414883;19;20129;-78
2022/07/12 01:31:07;;;;;;;1.60;1.50;;;;;;;;;;7381689;19;20442;-75
2022/07/12 01:33:33;;;;;;;2.20;1.70;;;;;;;;;;7385363;19;20184;-76
2022/07/12 01:35:59;;;;;;;1.70;1.60;;;;;;;;;;7390272;19;20149;-76
2022/07/12 01:38:24;;;;;;;1.57;1.47;;;;;;;;;;7386179;19;20124;-76
2022/07/12 01:40:50;;;;;;;2.43;1.80;;;;;;;;;;7373422;19;20153;-77
2022/07/12 01:43:16;;;;;;;2.87;1.93;;;;;;;;;;7377519;19;20125;-75
2022/07/12 01:45:42;;;;;;;1.90;1.80;;;;;;;;;;7374283;19;20144;-76
2022/07/12 01:48:07;;;;;;;4.03;1.90;;;;;;;;;;7381446;19;20629;-78
2022/07/12 01:50:33;;;;;;;4.03;2.03;;;;;;;;;;7377881;19;20180;-76
2022/07/12 01:52:59;;;;;;;2.00;1.70;;;;;;;;;;7389409;19;20164;-77
2022/07/12 01:55:24;;;;;;;5.03;1.90;;;;;;;;;;7382682;19;20204;-76
2022/07/12 01:57:50;;;;;;;4.17;2.00;;;;;;;;;;7384024;19;20161;-76
2022/07/12 02:00:16;;;;;;;2.27;2.07;;;;;;;;;;7376558;19;20621;-76
2022/07/12 02:02:44;;;;;;;2.43;1.60;;;;;;;;;;7375034;19;20179;-77
2022/07/12 02:05:09;;;;;;;3.53;2.20;;;;;;;;;;7381094;19;20169;-76
2022/07/12 02:07:35;;;;;;;4.37;2.00;;;;;;;;;;7380760;19;20149;-76
2022/07/12 02:10:00;;;;;;;3.67;1.90;;;;;;;;;;7376540;19;20586;-76
2022/07/12 02:12:26;;;;;;;2.17;1.80;;;;;;;;;;7377560;19;20167;-75
2022/07/12 02:14:51;;;;;;;3.00;2.27;;;;;;;;;;7378512;19;20132;-75
2022/07/12 02:17:17;;;;;;;2.63;2.20;;;;;;;;;;7378958;19;20166;-76
2022/07/12 02:19:43;;;;;;;2.60;1.90;;;;;;;;;;7391648;19;20562;-76
2022/07/12 02:22:08;;;;;;;3.87;2.20;;;;;;;;;;7396989;19;20153;-76
2022/07/12 02:24:34;;;;;;;4.20;1.90;;;;;;;;;;7385162;19;20121;-76
2022/07/12 02:26:59;;;;;;;2.53;2.20;;;;;;;;;;7398225;19;20129;-78
2022/07/12 02:29:25;;;;;;;2.13;1.97;;;;;;;;;;7395744;19;20160;-76
2022/07/12 02:31:50;;;;;;;4.03;2.60;;;;;;;;;;7400731;19;20433;-76
2022/07/12 02:34:16;;;;;;;3.33;2.13;;;;;;;;;;7378884;19;20148;-76
2022/07/12 02:36:41;;;;;;;2.17;1.90;;;;;;;;;;7372783;19;20533;-77
2022/07/12 02:39:06;;;;;;;4.33;2.10;;;;;;;;;;7377310;19;20159;-77
2022/07/12 02:41:33;;;;;;;3.43;2.30;;;;;;;;;;7375686;19;20180;-76
2022/07/12 02:43:58;;;;;;;2.80;2.07;;;;;;;;;;7382468;19;20129;-76
2022/07/12 02:46:24;;;;;;;4.10;2.30;;;;;;;;;;7376695;19;20137;-76
2022/07/12 02:48:49;;;;;;;4.07;2.27;;;;;;;;;;7379300;19;20185;-76
2022/07/12 02:51:14;;;;;;;4.03;2.13;;;;;;;;;;7376562;19;20152;-76
2022/07/12 02:53:39;;;;;;;3.80;2.17;;;;;;;;;;7384566;19;20189;-76
2022/07/12 02:56:05;;;;;;;3.47;2.70;;;;;;;;;;7386407;19;20170;-78
2022/07/12 02:58:31;;;;;;;3.33;2.20;;;;;;;;;;7389799;19;20121;-76
2022/07/12 03:00:56;;;;;;;2.77;2.47;;;;;;;;;;7382350;19;20177;-76
2022/07/12 03:03:21;;;;;;;3.17;2.20;;;;;;;;;;7383795;19;20129;-76
2022/07/12 03:05:47;;;;;;;4.03;2.10;;;;;;;;;;7381501;19;20117;-76
2022/07/12 03:08:13;;;;;;;3.63;2.10;;;;;;;;;;7382362;19;20174;-76
2022/07/12 03:10:38;;;;;;;3.00;2.23;;;;;;;;;;7372760;19;20344;-76
2022/07/12 03:13:04;;;;;;;2.40;2.20;;;;;;;;;;7377988;19;20129;-76
2022/07/12 03:15:30;;;;;;;2.50;2.30;;;;;;;;;;7380673;19;20179;-76
2022/07/12 03:17:56;;;;;;;2.83;2.30;;;;;;;;;;7374481;19;20133;-76
2022/07/12 03:20:22;;;;;;;5.20;2.70;;;;;;;;;;7374113;19;20148;-77
2022/07/12 03:22:50;;;;;;;2.50;2.20;;;;;;;;;;7371984;19;20469;-76
2022/07/12 03:25:16;;;;;;;2.63;2.43;;;;;;;;;;7383959;19;20141;-77
2022/07/12 03:27:41;;;;;;;3.13;2.20;;;;;;;;;;7376859;19;20117;-78
2022/07/12 03:30:08;;;;;;;3.30;2.50;;;;;;;;;;7375139;19;20140;-77
2022/07/12 03:32:33;;;;;;;4.63;2.17;;;;;;;;;;7377767;19;20232;-77
2022/07/12 03:34:58;;;;;;;3.30;2.20;;;;;;;;;;7378079;19;20148;-78
2022/07/12 03:37:24;;;;;;;2.80;2.50;;;;;;;;;;7377327;19;20627;-79
2022/07/12 03:39:49;;;;;;;3.53;2.30;;;;;;;;;;7377274;19;20121;-78
2022/07/12 03:42:15;;;;;;;2.60;2.40;;;;;;;;;;7368996;19;20615;-77
2022/07/12 03:44:40;;;;;;;2.93;2.43;;;;;;;;;;7380497;19;20151;-77
2022/07/12 03:47:06;;;;;;;2.87;2.40;;;;;;;;;;7377330;19;20208;-77
2022/07/12 03:49:31;;;;;;;3.30;2.43;;;;;;;;;;7373576;19;20149;-77
2022/07/12 03:51:56;;;;;;;3.40;2.53;;;;;;;;;;7373836;19;20175;-76
2022/07/12 03:54:22;;;;;;;5.00;2.60;;;;;;;;;;7375826;19;20872;-76
2022/07/12 03:59:31;;;;;;;2.67;2.30;;;;;;;;;;7388006;19;20150;-78
2022/07/12 04:01:57;;;;;;;5.00;2.83;;;;;;;;;;7377321;19;20141;-77
2022/07/12 04:04:22;;;;;;;4.47;2.70;;;;;;;;;;7382198;19;20139;-76
2022/07/12 04:06:47;;;;;;;2.90;2.60;;;;;;;;;;7383380;19;20131;-77
2022/07/12 04:09:13;;;;;;;2.97;2.60;;;;;;;;;;7370577;19;20121;-76
2022/07/12 04:11:39;;;;;;;5.40;2.40;;;;;;;;;;7378192;19;20538;-77
2022/07/12 04:14:04;;;;;;;4.37;2.57;;;;;;;;;;7372670;19;20164;-77
2022/07/12 04:16:32;;;;;;;3.27;2.60;;;;;;;;;;7375103;19;20128;-77
2022/07/12 04:18:57;;;;;;;2.80;2.50;;;;;;;;;;7377556;19;20156;-76
2022/07/12 04:21:23;;;;;;;2.50;2.27;;;;;;;;;;7378298;19;20155;-77
2022/07/12 04:23:48;;;;;;;4.60;2.70;;;;;;;;;;7371325;19;20137;-76
2022/07/12 04:26:14;;;;;;;4.03;2.60;;;;;;;;;;7375125;19;20155;-77
2022/07/12 04:28:39;;;;;;;5.47;2.90;;;;;;;;;;7375985;19;20469;-76
2022/07/12 04:31:05;;;;;;;5.10;3.03;;;;;;;;;;7374860;19;20152;-76
2022/07/12 04:33:30;;;;;;;4.87;2.90;;;;;;;;;;7371685;19;20153;-76
2022/07/12 04:35:55;;;;;;;3.43;2.80;;;;;;;;;;7378072;19;20627;-77
2022/07/12 04:38:21;;;;;;;4.17;2.50;;;;;;;;;;7371349;19;20603;-76
2022/07/12 04:40:46;;;;;;;5.10;2.93;;;;;;;;;;7392072;19;20156;-77
2022/07/12 04:43:11;;;;;;;5.17;2.70;;;;;;;;;;7368148;19;20178;-77
2022/07/12 04:45:37;;;;;;;3.83;2.90;;;;;;;;;;7376230;19;21256;-76
2022/07/12 04:48:02;;;;;;;3.80;2.97;;;;;;;;;;7377470;19;20213;-77
2022/07/12 04:50:28;;;;;;;4.30;2.80;;;;;;;;;;7369193;19;20662;-77
2022/07/12 04:52:53;;;;;;;4.13;3.13;;;;;;;;;;7386084;19;20121;-76
2022/07/12 04:55:18;;;;;;;3.17;2.80;;;;;;;;;;7381656;19;20227;-77
2022/07/12 04:57:43;;;;;;;4.37;2.83;;;;;;;;;;7381972;19;20521;-77
2022/07/12 05:00:09;;;;;;;5.37;3.37;;;;;;;;;;7385714;19;20697;-78
2022/07/12 05:02:35;;;;;;;4.37;3.10;;;;;;;;;;7383813;19;20709;-77
2022/07/12 05:05:00;;;;;;;5.87;3.33;;;;;;;;;;7387307;19;20155;-77
2022/07/12 05:07:25;;;;;;;6.97;2.90;;;;;;;;;;7386835;19;20184;-76
2022/07/12 05:09:51;;;;;;;5.07;3.37;;;;;;;;;;7380432;19;20615;-77
2022/07/12 05:12:17;;;;;;;5.00;3.73;;;;;;;;;;7382765;19;20164;-77
2022/07/12 05:14:43;;;;;;;5.37;3.27;;;;;;;;;;7389006;19;20212;-77
2022/07/12 05:17:09;;;;;;;4.60;3.20;;;;;;;;;;7389508;19;20137;-77
2022/07/12 05:19:34;;;;;;;6.90;3.33;;;;;;;;;;7398540;19;20152;-77
2022/07/12 05:22:02;;;;;;;4.50;2.90;;;;;;;;;;7392496;19;20180;-77
2022/07/12 05:24:27;;;;;;;3.10;2.80;;;;;;;;;;7401209;19;20626;-79
2022/07/12 05:26:53;;;;;;;3.67;3.17;;;;;;;;;;7390951;19;20135;-76
2022/07/12 05:29:18;;;;;;;4.03;3.10;;;;;;;;;;7390720;19;20155;-77
2022/07/12 05:31:43;;;;;;;9.17;3.23;;;;;;;;;;7387536;19;20194;-79
2022/07/12 05:34:09;;;;;;;5.90;3.43;;;;;;;;;;7385466;19;20160;-77
2022/07/12 05:36:34;;;;;;;5.00;3.30;;;;;;;;;;7378102;19;20607;-77
2022/07/12 05:38:59;;;;;;;5.63;3.53;;;;;;;;;;7371620;19;20811;-78
2022/07/12 05:41:24;;;;;;;5.83;3.27;;;;;;;;;;7372636;19;20848;-78
2022/07/12 05:43:50;;;;;;;4.63;3.17;;;;;;;;;;7417260;19;20128;-78
2022/07/12 17:39:30;;;;;;;2.33;1.60;;;;;;;;;;7393573;19;20197;-78
2022/07/12 17:41:56;;;;;;;2.33;1.70;;;;;;;;;;7388174;19;20828;-78
2022/07/12 17:44:21;;;;;;;1.70;1.60;;;;;;;;;;7390316;19;20163;-78
2022/07/12 17:46:48;;;;;;;1.60;1.50;;;;;;;;;;7390465;19;20137;-78
2022/07/12 17:49:13;;;;;;;2.88;1.50;;;;;;;;;;7391390;19;20184;-78
2022/07/12 17:51:38;;;;;;;3.47;1.40;;;;;;;;;;7388021;19;20144;-78
2022/07/12 17:54:04;;;;;;;2.53;1.50;;;;;;;;;;7390118;19;20161;-78
2022/07/12 17:56:29;;;;;;;3.42;1.73;;;;;;;;;;7390203;19;20137;-78
2022/07/12 17:58:54;;;;;;;1.52;1.42;;;;;;;;;;7389723;19;20188;-78
2022/07/12 18:01:20;;;;;;;2.85;1.60;;;;;;;;;;7387902;19;20177;-78
2022/07/12 18:03:47;;;;;;;3.63;1.60;;;;;;;;;;7389307;19;20138;-78
2022/07/12 18:06:13;;;;;;;2.10;1.60;;;;;;;;;;7389537;19;20152;-78
2022/07/12 18:08:39;;;;;;;1.75;1.65;;;;;;;;;;7391407;19;20160;-78
2022/07/12 18:14:41;;;;;;;1.42;1.33;;;;;;;;;;7400539;19;20177;-78
2022/07/12 18:16:34;;;;;;;2.13;1.98;;;;;;;;;;7395525;19;20143;-78
2022/07/12 18:18:59;;;;;;;2.00;1.70;;;;;;;;;;7397244;19;20216;-78
2022/07/12 18:21:25;;;;;;;1.70;1.60;;;;;;;;;;7393453;19;20578;-78
2022/07/12 18:23:50;;;;;;;2.28;1.58;;;;;;;;;;7397800;19;20180;-78
2022/07/12 18:26:15;;;;;;;2.10;1.50;;;;;;;;;;7396694;19;20133;-78
2022/07/12 18:28:41;;;;;;;2.65;1.90;;;;;;;;;;7397010;19;20164;-79
2022/07/12 18:31:06;;;;;;;2.33;2.13;;;;;;;;;;7396162;19;20188;-78
2022/07/12 18:33:31;;;;;;;2.15;2.00;;;;;;;;;;7399900;19;20137;-78
2022/07/12 18:35:57;;;;;;;3.20;2.00;;;;;;;;;;7402452;19;20579;-78
2022/07/12 18:38:22;;;;;;;1.73;1.63;;;;;;;;;;7397673;19;20134;-78
2022/07/12 18:40:47;;;;;;;2.50;1.52;;;;;;;;;;7395013;19;20223;-78
2022/07/12 18:43:13;;;;;;;1.70;1.60;;;;;;;;;;7396086;19;20594;-78
2022/07/12 18:45:39;;;;;;;2.45;1.88;;;;;;;;;;7395111;19;20148;-78
2022/07/12 18:48:05;;;;;;;1.70;1.60;;;;;;;;;;7370760;19;20749;-78
2022/07/12 18:50:31;;;;;;;1.65;1.42;;;;;;;;;;7374460;19;20157;-78
2022/07/12 18:52:56;;;;;;;1.50;1.40;;;;;;;;;;7375838;19;20143;-78
2022/07/12 18:55:21;;;;;;;2.20;1.33;;;;;;;;;;7372805;19;20431;-78
2022/07/12 18:57:47;;;;;;;1.80;1.70;;;;;;;;;;7373358;19;20154;-78
2022/07/12 19:00:13;;;;;;;2.17;1.40;;;;;;;;;;7382059;19;20737;-78
2022/07/12 19:02:38;;;;;;;1.67;1.40;;;;;;;;;;7382541;19;20164;-78
2022/07/12 19:05:04;;;;;;;2.05;1.40;;;;;;;;;;7387379;19;20141;-77
2022/07/12 19:07:30;;;;;;;1.90;1.70;;;;;;;;;;7378614;19;20149;-78
2022/07/12 19:09:55;;;;;;;1.38;1.27;;;;;;;;;;7379730;19;20181;-78
2022/07/12 19:12:20;;;;;;;2.42;1.55;;;;;;;;;;7384750;19;20173;-78
2022/07/12 19:14:46;;;;;;;5.97;1.70;;;;;;;;;;7373768;19;20205;-78
2022/07/12 19:17:11;;;;;;;3.13;1.80;;;;;;;;;;7365160;19;20216;-78
2022/07/12 19:19:36;;;;;;;2.65;1.75;;;;;;;;;;7374972;19;20607;-78
2022/07/12 19:22:03;;;;;;;2.63;1.92;;;;;;;;;;7378679;19;20172;-78
2022/07/12 19:24:29;;;;;;;4.60;2.28;;;;;;;;;;7386847;19;20163;-77
2022/07/12 19:26:57;;;;;;;4.32;2.65;;;;;;;;;;7377772;19;20595;-77
2022/07/12 19:29:22;;;;;;;4.68;2.63;;;;;;;;;;7374010;19;20149;-77
2022/07/12 19:31:48;;;;;;;3.47;2.50;;;;;;;;;;7388353;19;20153;-77
2022/07/12 19:34:13;;;;;;;3.47;2.92;;;;;;;;;;7372122;19;20177;-77
2022/07/12 19:36:38;;;;;;;3.08;1.67;;;;;;;;;;7387744;19;20125;-77
2022/07/12 19:39:04;;;;;;;2.13;1.60;;;;;;;;;;7382510;19;20204;-77
2022/07/12 19:41:29;;;;;;;2.28;1.58;;;;;;;;;;7383817;19;20526;-76
2022/07/12 19:43:54;;;;;;;1.90;1.65;;;;;;;;;;7391294;19;20133;-77
2022/07/12 19:46:20;;;;;;;25.23;14.20;;;;;;;;;;7392800;19;20148;-77
2022/07/12 19:48:45;;;;;;;23.92;14.23;;;;;;;;;;7392085;19;20151;-77
2022/07/12 19:51:10;;;;;;;6.35;4.78;;;;;;;;;;7391314;19;20148;-77
2022/07/12 19:53:36;;;;;;;3.03;2.78;;;;;;;;;;7391984;19;20124;-77
2022/07/12 19:56:01;;;;;;;3.85;2.92;;;;;;;;;;7377135;19;20155;-77
2022/07/12 19:58:26;;;;;;;4.45;3.58;;;;;;;;;;7388654;19;20141;-77
2022/07/12 20:00:52;;;;;;;3.78;2.17;;;;;;;;;;7386432;19;20538;-77
2022/07/12 20:03:18;;;;;;;2.55;2.35;;;;;;;;;;7364224;19;20137;-77
2022/07/12 20:05:43;;;;;;;3.28;2.03;;;;;;;;;;7374180;19;20124;-78
2022/07/12 20:08:10;;;;;;;3.20;2.72;;;;;;;;;;7378960;19;20186;-79
2022/07/12 20:10:38;;;;;;;3.17;2.88;;;;;;;;;;7380218;19;20172;-77
2022/07/12 20:13:03;;;;;;;5.82;4.32;;;;;;;;;;7386417;19;20163;-77
2022/07/12 20:15:29;;;;;;;4.28;3.15;;;;;;;;;;7385672;19;20662;-77
2022/07/12 20:17:54;;;;;;;2.60;2.40;;;;;;;;;;7381111;19;20135;-78
2022/07/12 20:20:19;;;;;;;3.40;3.10;;;;;;;;;;7386118;19;20133;-76
2022/07/12 20:22:45;;;;;;;3.38;3.08;;;;;;;;;;7387371;19;20163;-77
2022/07/12 20:25:10;;;;;;;3.00;2.40;;;;;;;;;;7379628;19;20874;-77
2022/07/12 20:27:36;;;;;;;2.72;2.40;;;;;;;;;;7381581;19;20212;-78
2022/07/12 20:30:01;;;;;;;3.92;2.00;;;;;;;;;;7381495;19;20132;-80
2022/07/12 20:32:27;;;;;;;1.63;1.52;;;;;;;;;;7371785;19;20645;-77
2022/07/12 20:34:52;;;;;;;1.70;1.60;;;;;;;;;;7374741;19;20543;-77
2022/07/12 20:37:18;;;;;;;1.60;1.50;;;;;;;;;;7379315;19;20580;-77
2022/07/12 20:39:43;;;;;;;2.00;1.80;;;;;;;;;;7379766;19;20236;-77
2022/07/12 20:42:09;;;;;;;2.25;1.70;;;;;;;;;;7370392;19;20171;-80
2022/07/12 20:44:36;;;;;;;2.78;1.88;;;;;;;;;;7378809;19;20117;-77
2022/07/12 20:47:02;;;;;;;2.13;1.80;;;;;;;;;;7385192;19;20139;-77
2022/07/12 20:49:27;;;;;;;3.75;1.98;;;;;;;;;;7378989;19;20227;-79
2022/07/12 20:51:54;;;;;;;3.70;1.90;;;;;;;;;;7379878;19;20176;-77
2022/07/12 20:54:20;;;;;;;2.17;1.70;;;;;;;;;;7387040;19;20121;-77
2022/07/12 20:56:46;;;;;;;3.83;3.47;;;;;;;;;;7386817;19;20677;-77
2022/07/12 20:59:12;;;;;;;5.30;3.08;;;;;;;;;;7388660;19;20567;-77
2022/07/12 21:01:39;;;;;;;2.42;2.22;;;;;;;;;;7387633;19;20156;-77
2022/07/12 21:04:05;;;;;;;2.60;2.22;;;;;;;;;;7387711;19;20128;-77
2022/07/12 21:06:30;;;;;;;3.65;2.40;;;;;;;;;;7386305;19;20849;-77
2022/07/12 21:08:55;;;;;;;3.10;1.75;;;;;;;;;;7386170;19;20149;-79
2022/07/12 21:11:21;;;;;;;2.85;1.75;;;;;;;;;;7367045;19;20513;-79
2022/07/12 21:13:47;;;;;;;2.10;1.67;;;;;;;;;;7386050;19;20144;-76
2022/07/12 21:16:12;;;;;;;2.72;1.70;;;;;;;;;;7386247;19;20144;-76
2022/07/12 21:18:37;;;;;;;1.60;1.50;;;;;;;;;;7385502;19;20145;-76
2022/07/12 21:21:03;;;;;;;2.22;1.60;;;;;;;;;;7375127;19;20165;-76
2022/07/12 21:23:28;;;;;;;3.70;1.60;;;;;;;;;;7385576;19;20141;-76
2022/07/12 21:25:54;;;;;;;3.65;1.65;;;;;;;;;;7385075;19;20145;-76
2022/07/12 21:28:20;;;;;;;4.35;2.10;;;;;;;;;;7384385;19;20459;-76
2022/07/12 21:30:45;;;;;;;2.17;1.92;;;;;;;;;;7385680;19;20149;-77
2022/07/12 21:33:11;;;;;;;1.90;1.80;;;;;;;;;;7379358;19;20752;-76
2022/07/12 21:35:36;;;;;;;6.00;1.98;;;;;;;;;;7380438;19;20724;-76
2022/07/12 21:38:02;;;;;;;2.58;1.83;;;;;;;;;;7379515;19;20151;-78
2022/07/12 21:40:27;;;;;;;2.40;1.80;;;;;;;;;;7385126;19;20152;-76
2022/07/12 21:42:52;;;;;;;3.17;1.70;;;;;;;;;;7377990;19;20125;-76
2022/07/12 21:45:20;;;;;;;2.95;1.80;;;;;;;;;;7379549;19;20137;-78
2022/07/12 21:47:45;;;;;;;2.30;1.48;;;;;;;;;;7382685;19;20144;-78
2022/07/12 21:50:11;;;;;;;3.28;1.90;;;;;;;;;;7382136;19;20733;-79
2022/07/12 21:52:36;;;;;;;2.85;2.30;;;;;;;;;;7382502;19;20575;-77
2022/07/12 21:55:02;;;;;;;2.60;2.23;;;;;;;;;;7379867;19;20148;-77
2022/07/12 21:57:27;;;;;;;2.40;2.20;;;;;;;;;;7371728;19;20582;-78
2022/07/12 21:59:53;;;;;;;2.92;2.05;;;;;;;;;;7373030;19;20189;-78
2022/07/12 22:02:18;;;;;;;2.60;2.40;;;;;;;;;;7373029;19;20151;-79
2022/07/12 22:04:43;;;;;;;4.70;2.73;;;;;;;;;;7381965;19;20504;-78
2022/07/12 22:07:08;;;;;;;5.40;2.63;;;;;;;;;;7397078;19;20560;-79
2022/07/12 22:09:34;;;;;;;3.40;2.10;;;;;;;;;;7380510;19;20156;-78
2022/07/12 22:11:59;;;;;;;4.23;2.43;;;;;;;;;;7379590;19;20810;-81
2022/07/12 22:14:25;;;;;;;4.20;1.93;;;;;;;;;;7387628;19;20686;-78
2022/07/12 22:16:50;;;;;;;4.45;2.08;;;;;;;;;;7390478;19;20133;-80
2022/07/12 22:19:16;;;;;;;6.60;2.30;;;;;;;;;;7384079;19;20163;-79
2022/07/12 22:21:41;;;;;;;1.90;1.70;;;;;;;;;;7387778;19;20628;-79
2022/07/12 22:24:06;;;;;;;4.77;2.60;;;;;;;;;;7392754;19;20125;-77
2022/07/12 22:26:32;;;;;;;3.10;2.13;;;;;;;;;;7391368;19;20619;-80
2022/07/12 22:28:57;;;;;;;5.30;2.50;;;;;;;;;;7392647;19;20121;-80
2022/07/12 22:31:22;;;;;;;3.93;2.30;;;;;;;;;;7381360;19;20660;-79
2022/07/12 22:33:48;;;;;;;3.03;2.73;;;;;;;;;;7384908;19;20121;-79
2022/07/12 22:36:13;;;;;;;4.33;2.73;;;;;;;;;;7387785;19;20194;-79
2022/07/12 22:38:39;;;;;;;6.57;3.70;;;;;;;;;;7383987;19;20642;-78
2022/07/12 22:41:05;;;;;;;4.30;2.80;;;;;;;;;;7384598;19;20149;-81
2022/07/12 22:43:30;;;;;;;2.87;2.57;;;;;;;;;;7390933;19;20125;-79
2022/07/12 22:45:55;;;;;;;3.10;2.37;;;;;;;;;;7391813;19;20587;-80
2022/07/12 22:48:21;;;;;;;2.97;2.10;;;;;;;;;;7383280;19;20626;-81
2022/07/12 22:53:31;;;;;;;3.30;2.47;;;;;;;;;;7386053;19;20594;-80
2022/07/12 22:55:59;;;;;;;2.63;1.90;;;;;;;;;;7384495;19;20156;-80
2022/07/12 22:58:25;;;;;;;3.37;2.00;;;;;;;;;;7422635;19;20125;-80
2022/07/12 23:00:50;;;;;;;2.43;2.10;;;;;;;;;;7426746;19;20172;-80
2022/07/12 23:03:15;;;;;;;2.93;2.03;;;;;;;;;;7406784;19;20125;-81
2022/07/12 23:05:40;;;;;;;2.40;2.10;;;;;;;;;;7391104;19;20738;-78
2022/07/12 23:08:06;;;;;;;2.60;1.43;;;;;;;;;;7388389;19;20125;-78
2022/07/12 23:10:31;;;;;;;2.20;1.87;;;;;;;;;;7380868;19;20199;-77
2022/07/12 23:12:56;;;;;;;2.63;2.10;;;;;;;;;;7390441;19;20152;-78
2022/07/12 23:15:22;;;;;;;3.83;2.23;;;;;;;;;;7391025;19;20144;-78
2022/07/12 23:17:47;;;;;;;2.50;2.27;;;;;;;;;;7383466;19;20140;-78
2022/07/12 23:20:13;;;;;;;3.33;2.27;;;;;;;;;;7381738;19;20514;-77
2022/07/12 23:22:38;;;;;;;6.80;2.33;;;;;;;;;;7386700;19;20144;-81
2022/07/12 23:25:04;;;;;;;1.87;1.67;;;;;;;;;;7386901;19;20140;-77
2022/07/12 23:27:29;;;;;;;3.67;2.00;;;;;;;;;;7382453;19;20145;-77
2022/07/12 23:29:54;;;;;;;4.00;2.10;;;;;;;;;;7382478;19;20145;-79
2022/07/12 23:32:20;;;;;;;3.70;2.20;;;;;;;;;;7374578;19;21307;-78
2022/07/12 23:34:46;;;;;;;2.97;1.90;;;;;;;;;;7377764;19;20651;-79
2022/07/12 23:37:11;;;;;;;1.97;1.87;;;;;;;;;;7373374;19;20488;-78
2022/07/12 23:39:37;;;;;;;2.87;2.03;;;;;;;;;;7375477;19;20143;-79
2022/07/12 23:42:02;;;;;;;3.10;1.90;;;;;;;;;;7377015;19;20178;-77
2022/07/12 23:44:28;;;;;;;3.87;1.87;;;;;;;;;;7377255;19;20145;-78
2022/07/12 23:46:53;;;;;;;2.50;1.90;;;;;;;;;;7385196;19;20129;-78
2022/07/12 23:49:18;;;;;;;4.47;1.93;;;;;;;;;;7378227;19;20219;-77
2022/07/12 23:51:44;;;;;;;3.43;2.00;;;;;;;;;;7378419;19;20865;-76
2022/07/12 23:54:09;;;;;;;2.73;2.20;;;;;;;;;;7377834;19;20148;-78
2022/07/12 23:56:34;;;;;;;3.43;1.83;;;;;;;;;;7388854;19;20603;-76
2022/07/12 23:58:59;;;;;;;4.37;2.17;;;;;;;;;;7381740;19;20152;-77
